createdAt,value
2018-07-15T00:00:30.163Z,99792.34
2018-07-15T00:02:06.045Z,99785.71
2018-07-15T00:03:41.663Z,99788.48
2018-07-15T00:05:17.251Z,99788.36
2018-07-15T00:06:53.232Z,99793.80
2018-07-15T00:08:29.335Z,99793.88
2018-07-15T00:10:04.975Z,99793.71
2018-07-15T00:11:40.615Z,99793.94
2018-07-15T00:13:16.192Z,99790.45
2018-07-15T00:14:51.763Z,99789.68
2018-07-15T00:16:27.580Z,99787.36
2018-07-15T00:18:03.275Z,99788.61
2018-07-15T00:19:38.928Z,99789.91
2018-07-15T00:21:14.997Z,99793.97
2018-07-15T00:22:50.579Z,99792.84
2018-07-15T00:24:26.187Z,99790.13
2018-07-15T00:26:01.893Z,99791.08
2018-07-15T00:27:37.586Z,99792.97
2018-07-15T00:29:13.169Z,99793.41
2018-07-15T00:30:48.769Z,99786.77
2018-07-15T00:32:24.454Z,99786.77
2018-07-15T00:34:00.144Z,99774.16
2018-07-15T00:35:35.752Z,99791.05
2018-07-15T00:37:11.369Z,99787.55
2018-07-15T00:38:47.086Z,99788.11
2018-07-15T00:40:22.690Z,99787.11
2018-07-15T00:41:58.323Z,99787.47
2018-07-15T00:43:34.035Z,99787.27
2018-07-15T00:45:09.627Z,99783.84
2018-07-15T00:46:45.195Z,99785.37
2018-07-15T00:48:20.998Z,99783.08
2018-07-15T00:49:56.966Z,99779.87
2018-07-15T00:51:32.634Z,99784.90
2018-07-15T00:53:08.634Z,99779.80
2018-07-15T00:54:44.283Z,99780.92
2018-07-15T00:56:19.991Z,99784.61
2018-07-15T00:57:55.780Z,99793.33
2018-07-15T00:59:31.904Z,99783.83
2018-07-15T01:01:07.477Z,99788.45
2018-07-15T01:02:43.112Z,99789.50
2018-07-15T01:04:18.758Z,99740.95
2018-07-15T01:05:54.638Z,99782.30
2018-07-15T01:07:30.383Z,99780.92
2018-07-15T01:09:08.059Z,99779.60
2018-07-15T01:10:43.746Z,99775.83
2018-07-15T01:12:19.324Z,99777.37
2018-07-15T01:13:55.128Z,99776.25
2018-07-15T01:15:30.720Z,99765.44
2018-07-15T01:17:06.335Z,99771.22
2018-07-15T01:18:41.921Z,99770.24
2018-07-15T01:20:17.639Z,99770.24
2018-07-15T01:21:53.287Z,99766.69
2018-07-15T01:23:28.991Z,99769.83
2018-07-15T01:25:05.136Z,99771.42
2018-07-15T01:26:40.706Z,99771.02
2018-07-15T01:28:16.583Z,99772.28
2018-07-15T01:29:52.379Z,99775.53
2018-07-15T01:31:27.968Z,99779.45
2018-07-15T01:33:03.647Z,99776.09
2018-07-15T01:34:39.251Z,99777.98
2018-07-15T01:36:15.141Z,99773.53
2018-07-15T01:37:51.339Z,99772.96
2018-07-15T01:39:26.938Z,99767.24
2018-07-15T01:41:02.502Z,99768.78
2018-07-15T01:42:38.467Z,99768.36
2018-07-15T01:44:14.051Z,99766.14
2018-07-15T01:45:49.642Z,99766.77
2018-07-15T01:47:25.450Z,99768.02
2018-07-15T01:49:01.091Z,99767.53
2018-07-15T01:50:36.654Z,99763.62
2018-07-15T01:52:12.298Z,99768.86
2018-07-15T01:53:48.041Z,99728.92
2018-07-15T01:55:23.804Z,99768.23
2018-07-15T01:56:59.471Z,99764.79
2018-07-15T01:58:35.375Z,99764.58
2018-07-15T02:00:10.951Z,99763.62
2018-07-15T02:01:46.578Z,99757.05
2018-07-15T02:03:22.235Z,99759.34
2018-07-15T02:04:57.811Z,99755.15
2018-07-15T02:06:33.403Z,99754.39
2018-07-15T02:08:09.002Z,99753.88
2018-07-15T02:09:44.855Z,99749.78
2018-07-15T02:11:20.658Z,99749.15
2018-07-15T02:12:56.223Z,99742.37
2018-07-15T02:14:31.915Z,99739.50
2018-07-15T02:16:07.811Z,99746.28
2018-07-15T02:17:43.480Z,99748.30
2018-07-15T02:19:19.039Z,99748.45
2018-07-15T02:20:54.785Z,99748.30
2018-07-15T02:22:30.391Z,99744.95
2018-07-15T02:24:06.090Z,99745.80
2018-07-15T02:25:41.915Z,99748.30
2018-07-15T02:27:17.667Z,99749.89
2018-07-15T02:28:53.259Z,99742.72
2018-07-15T02:30:28.843Z,99745.72
2018-07-15T02:32:04.427Z,99747.19
2018-07-15T02:33:40.053Z,99746.72
2018-07-15T02:35:15.670Z,99747.89
2018-07-15T02:36:51.348Z,99742.26
2018-07-15T02:38:26.948Z,99746.50
2018-07-15T02:40:02.581Z,99749.56
2018-07-15T02:41:38.395Z,99748.83
2018-07-15T02:43:14.089Z,99753.86
2018-07-15T02:44:49.710Z,99750.66
2018-07-15T02:46:25.387Z,99750.52
2018-07-15T02:48:00.988Z,99751.36
2018-07-15T02:49:36.558Z,99757.77
2018-07-15T02:51:12.191Z,99754.47
2018-07-15T02:52:47.847Z,99757.87
2018-07-15T02:54:23.402Z,99755.53
2018-07-15T02:55:58.975Z,99757.81
2018-07-15T02:57:34.703Z,99756.13
2018-07-15T02:59:10.367Z,99754.47
2018-07-15T03:00:46.181Z,99760.46
2018-07-15T03:02:21.870Z,99754.69
2018-07-15T03:03:57.439Z,99754.47
2018-07-15T03:05:33.019Z,99757.55
2018-07-15T03:07:09.015Z,99750.55
2018-07-15T03:08:44.651Z,99751.86
2018-07-15T03:10:20.249Z,99753.67
2018-07-15T03:11:55.867Z,99748.04
2018-07-15T03:13:31.445Z,99751.91
2018-07-15T03:15:07.197Z,99754.70
2018-07-15T03:16:43.001Z,99750.11
2018-07-15T03:18:18.727Z,99750.73
2018-07-15T03:19:54.313Z,99748.20
2018-07-15T03:21:29.941Z,99753.59
2018-07-15T03:23:05.619Z,99752.68
2018-07-15T03:24:41.275Z,99745.84
2018-07-15T03:26:16.858Z,99757.47
2018-07-15T03:27:52.443Z,99759.19
2018-07-15T03:29:28.016Z,99760.02
2018-07-15T03:31:03.927Z,99755.86
2018-07-15T03:32:39.659Z,99760.15
2018-07-15T03:34:15.316Z,99757.78
2018-07-15T03:35:50.874Z,99757.30
2018-07-15T03:37:26.464Z,99747.94
2018-07-15T03:39:02.023Z,99747.83
2018-07-15T03:40:37.627Z,99748.67
2018-07-15T03:42:13.210Z,99736.11
2018-07-15T03:43:49.283Z,99743.86
2018-07-15T03:45:25.031Z,99742.27
2018-07-15T03:47:00.778Z,99746.23
2018-07-15T03:48:36.937Z,99745.20
2018-07-15T03:50:12.588Z,99745.75
2018-07-15T03:51:48.215Z,99742.84
2018-07-15T03:53:23.887Z,99740.45
2018-07-15T03:54:59.471Z,99735.72
2018-07-15T03:56:35.075Z,99744.58
2018-07-15T03:58:10.947Z,99745.55
2018-07-15T03:59:46.741Z,99742.33
2018-07-15T04:01:22.371Z,99745.33
2018-07-15T04:02:58.060Z,99718.68
2018-07-15T04:04:33.831Z,99741.57
2018-07-15T04:06:09.452Z,99743.80
2018-07-15T04:07:45.193Z,99741.99
2018-07-15T04:09:20.767Z,99745.12
2018-07-15T04:10:56.315Z,99745.75
2018-07-15T04:12:32.099Z,99740.60
2018-07-15T04:14:07.690Z,99745.55
2018-07-15T04:15:43.299Z,99743.73
2018-07-15T04:17:19.039Z,99744.38
2018-07-15T04:18:54.692Z,99744.16
2018-07-15T04:20:30.319Z,99748.41
2018-07-15T04:22:06.016Z,99752.59
2018-07-15T04:23:41.640Z,99746.51
2018-07-15T04:25:17.277Z,99749.42
2018-07-15T04:26:52.846Z,99751.95
2018-07-15T04:28:28.472Z,99753.02
2018-07-15T04:30:04.146Z,99753.13
2018-07-15T04:31:39.713Z,99758.44
2018-07-15T04:33:15.350Z,99757.68
2018-07-15T04:34:51.106Z,99757.41
2018-07-15T04:36:26.717Z,99755.93
2018-07-15T04:38:02.441Z,99757.41
2018-07-15T04:39:38.066Z,99755.53
2018-07-15T04:41:13.632Z,99755.59
2018-07-15T04:42:49.629Z,99743.38
2018-07-15T04:44:25.218Z,99741.89
2018-07-15T04:46:00.887Z,99743.45
2018-07-15T04:47:36.482Z,99744.17
2018-07-15T04:49:12.083Z,99747.05
2018-07-15T04:50:47.710Z,99745.93
2018-07-15T04:52:23.375Z,99745.99
2018-07-15T04:53:58.974Z,99751.34
2018-07-15T04:55:34.569Z,99745.25
2018-07-15T04:57:10.194Z,99741.45
2018-07-15T04:58:45.799Z,99737.93
2018-07-15T05:00:21.370Z,99737.64
2018-07-15T05:01:57.024Z,99736.81
2018-07-15T05:03:33.019Z,99730.84
2018-07-15T05:05:08.615Z,99734.59
2018-07-15T05:06:44.626Z,99734.97
2018-07-15T05:08:20.408Z,99744.56
2018-07-15T05:09:56.062Z,99737.20
2018-07-15T05:11:31.618Z,99748.55
2018-07-15T05:13:07.243Z,99745.33
2018-07-15T05:14:43.004Z,99744.75
2018-07-15T05:16:18.579Z,99745.67
2018-07-15T05:17:54.143Z,99743.23
2018-07-15T05:19:29.757Z,99745.15
2018-07-15T05:21:05.310Z,99746.67
2018-07-15T05:22:40.967Z,99747.88
2018-07-15T05:24:17.251Z,99748.48
2018-07-15T05:25:52.892Z,99750.84
2018-07-15T05:27:28.490Z,99748.72
2018-07-15T05:29:04.096Z,99751.14
2018-07-15T05:30:39.687Z,99746.66
2018-07-15T05:32:15.470Z,99747.64
2018-07-15T05:33:51.460Z,99747.03
2018-07-15T05:35:27.137Z,99739.16
2018-07-15T05:37:03.177Z,99751.19
2018-07-15T05:38:39.005Z,99752.04
2018-07-15T05:40:14.767Z,99754.44
2018-07-15T05:41:50.911Z,99750.03
2018-07-15T05:43:26.951Z,99754.59
2018-07-15T05:45:03.736Z,99754.72
2018-07-15T05:46:39.461Z,99750.03
2018-07-15T05:48:15.347Z,99757.88
2018-07-15T05:49:50.962Z,99758.09
2018-07-15T05:51:26.550Z,99763.48
2018-07-15T05:53:02.224Z,99766.74
2018-07-15T05:54:37.901Z,99758.38
2018-07-15T05:56:13.645Z,99767.67
2018-07-15T05:57:49.485Z,99759.34
2018-07-15T05:59:26.205Z,99764.73
2018-07-15T06:01:01.811Z,99764.55
2018-07-15T06:02:38.139Z,99775.02
2018-07-15T06:04:13.717Z,99768.15
2018-07-15T06:05:49.584Z,99760.92
2018-07-15T06:07:25.186Z,99769.18
2018-07-15T06:09:00.806Z,99766.59
2018-07-15T06:10:36.413Z,99770.00
2018-07-15T06:12:12.111Z,99760.16
2018-07-15T06:13:47.655Z,99761.74
2018-07-15T06:15:24.333Z,99764.03
2018-07-15T06:16:59.919Z,99772.17
2018-07-15T06:18:35.887Z,99767.81
2018-07-15T06:20:11.489Z,99768.62
2018-07-15T06:21:47.384Z,99766.03
2018-07-15T06:23:22.997Z,99768.09
2018-07-15T06:24:58.559Z,99770.71
2018-07-15T06:26:34.238Z,99723.91
2018-07-15T06:28:09.836Z,99773.82
2018-07-15T06:29:45.459Z,99767.78
2018-07-15T06:31:21.047Z,99762.76
2018-07-15T06:32:56.598Z,99763.11
2018-07-15T06:34:33.256Z,99764.41
2018-07-15T06:36:08.806Z,99769.78
2018-07-15T06:37:44.505Z,99766.09
2018-07-15T06:39:20.076Z,99768.58
2018-07-15T06:40:55.630Z,99764.77
2018-07-15T06:42:31.232Z,99763.44
2018-07-15T06:44:07.253Z,99768.21
2018-07-15T06:45:42.863Z,99765.06
2018-07-15T06:47:18.657Z,99764.86
2018-07-15T06:48:54.225Z,99759.73
2018-07-15T06:50:29.796Z,99729.95
2018-07-15T06:52:05.502Z,99768.23
2018-07-15T06:53:41.371Z,99756.63
2018-07-15T06:55:17.116Z,99761.02
2018-07-15T06:56:52.886Z,99754.55
2018-07-15T06:58:28.595Z,99752.41
2018-07-15T07:00:04.381Z,99747.91
2018-07-15T07:01:40.006Z,99759.86
2018-07-15T07:03:15.852Z,99758.38
2018-07-15T07:04:51.550Z,99753.19
2018-07-15T07:06:27.347Z,99757.68
2018-07-15T07:08:03.492Z,99753.65
2018-07-15T07:09:39.079Z,99755.88
2018-07-15T07:11:14.627Z,99756.31
2018-07-15T07:12:51.363Z,99759.02
2018-07-15T07:14:30.252Z,99757.54
2018-07-15T07:16:06.133Z,99769.04
2018-07-15T07:17:41.728Z,99755.91
2018-07-15T07:19:17.475Z,99756.41
2018-07-15T07:20:53.054Z,99757.07
2018-07-15T07:22:28.993Z,99753.42
2018-07-15T07:24:05.876Z,99750.75
2018-07-15T07:25:43.970Z,99755.75
2018-07-15T07:27:21.049Z,99760.27
2018-07-15T07:29:02.729Z,99758.42
2018-07-15T07:30:39.895Z,99756.77
2018-07-15T07:32:15.688Z,99758.61
2018-07-15T07:33:51.682Z,99756.44
2018-07-15T07:35:27.326Z,99755.00
2018-07-15T07:37:02.869Z,99756.16
2018-07-15T07:38:38.899Z,99750.00
2018-07-15T07:40:14.631Z,99762.51
2018-07-15T07:41:50.479Z,99754.48
2018-07-15T07:43:26.113Z,99756.98
2018-07-15T07:45:01.716Z,99759.16
2018-07-15T07:46:39.508Z,99757.17
2018-07-15T07:48:15.088Z,99761.34
2018-07-15T07:49:50.718Z,99764.50
2018-07-15T07:51:26.260Z,99761.48
2018-07-15T07:53:01.828Z,99756.16
2018-07-15T07:54:37.679Z,99761.34
2018-07-15T07:56:13.359Z,99762.16
2018-07-15T07:57:49.036Z,99756.82
2018-07-15T07:59:24.797Z,99762.82
2018-07-15T08:01:00.502Z,99759.14
2018-07-15T08:02:36.311Z,99762.64
2018-07-15T08:04:11.967Z,99762.66
2018-07-15T08:05:48.071Z,99763.81
2018-07-15T08:07:23.990Z,99759.98
2018-07-15T08:08:59.735Z,99758.15
2018-07-15T08:10:35.570Z,99761.47
2018-07-15T08:12:11.419Z,99760.80
2018-07-15T08:13:47.073Z,99762.47
2018-07-15T08:15:22.763Z,99763.84
2018-07-15T08:16:58.631Z,99760.13
2018-07-15T08:18:34.458Z,99755.28
2018-07-15T08:20:10.263Z,99763.80
2018-07-15T08:21:46.065Z,99761.25
2018-07-15T08:23:21.681Z,99760.45
2018-07-15T08:24:57.282Z,99752.20
2018-07-15T08:26:33.026Z,99752.33
2018-07-15T08:28:08.671Z,99752.30
2018-07-15T08:29:55.616Z,99749.47
2018-07-15T08:31:31.239Z,99756.47
2018-07-15T08:33:07.094Z,99746.33
2018-07-15T08:34:42.990Z,99749.29
2018-07-15T08:36:18.879Z,99751.47
2018-07-15T08:37:54.791Z,99743.50
2018-07-15T08:39:30.399Z,99751.41
2018-07-15T08:41:06.100Z,99743.26
2018-07-15T08:42:41.838Z,99749.47
2018-07-15T08:44:17.574Z,99746.95
2018-07-15T08:45:53.280Z,99746.80
2018-07-15T08:47:29.203Z,99741.92
2018-07-15T08:49:05.931Z,99747.08
2018-07-15T08:50:41.798Z,99741.70
2018-07-15T08:52:17.841Z,99738.03
2018-07-15T08:53:53.478Z,99741.58
2018-07-15T08:55:29.653Z,99749.45
2018-07-15T08:57:05.686Z,99753.58
2018-07-15T08:58:41.680Z,99740.20
2018-07-15T09:00:19.098Z,99749.19
2018-07-15T09:01:56.126Z,99744.50
2018-07-15T09:03:39.478Z,99745.67
2018-07-15T09:05:15.428Z,99735.81
2018-07-15T09:06:51.267Z,99745.17
2018-07-15T09:08:27.413Z,99750.37
2018-07-15T09:10:02.989Z,99752.67
2018-07-15T09:11:38.643Z,99743.19
2018-07-15T09:13:14.500Z,99752.86
2018-07-15T09:14:56.704Z,99740.13
2018-07-15T09:16:40.924Z,99739.14
2018-07-15T09:18:24.829Z,99742.92
2018-07-15T09:20:09.499Z,99742.16
2018-07-15T09:21:54.083Z,99742.42
2018-07-15T09:23:36.840Z,99742.14
2018-07-15T09:25:17.662Z,99741.60
2018-07-15T09:26:57.362Z,99732.77
2018-07-15T09:28:39.804Z,99724.16
2018-07-15T09:30:24.409Z,99740.80
2018-07-15T09:32:08.110Z,99742.33
2018-07-15T09:33:47.212Z,99727.70
2018-07-15T09:35:29.203Z,99724.78
2018-07-15T09:37:10.894Z,99730.38
2018-07-15T09:38:53.782Z,99725.08
2018-07-15T09:40:38.131Z,99726.71
2018-07-15T09:42:14.889Z,99720.27
2018-07-15T09:43:57.489Z,99716.27
2018-07-15T09:45:41.713Z,99724.75
2018-07-15T09:47:23.218Z,99720.27
2018-07-15T09:49:07.350Z,99724.58
2018-07-15T09:50:44.800Z,99723.20
2018-07-15T09:52:29.185Z,99716.02
2018-07-15T09:54:12.059Z,99714.45
2018-07-15T09:55:54.599Z,99713.25
2018-07-15T09:57:35.436Z,99712.55
2018-07-15T09:59:15.806Z,99709.41
2018-07-15T10:00:58.968Z,99710.33
2018-07-15T10:02:42.324Z,99700.23
2018-07-15T10:04:26.119Z,99698.75
2018-07-15T10:06:09.155Z,99699.65
2018-07-15T10:07:47.829Z,99701.13
2018-07-15T10:09:28.231Z,99700.70
2018-07-15T10:11:13.328Z,99696.13
2018-07-15T10:12:58.128Z,99700.17
2018-07-15T10:14:39.172Z,99693.73
2018-07-15T10:16:20.918Z,99699.09
2018-07-15T10:18:01.878Z,99695.81
2018-07-15T10:19:45.321Z,99695.20
2018-07-15T10:21:29.503Z,99691.52
2018-07-15T10:23:09.002Z,99691.91
2018-07-15T10:24:51.320Z,99687.95
2018-07-15T10:26:33.951Z,99684.27
2018-07-15T10:28:17.334Z,99689.75
2018-07-15T10:30:00.850Z,99683.89
2018-07-15T10:31:37.256Z,99679.00
2018-07-15T10:33:15.680Z,99677.30
2018-07-15T10:34:57.530Z,99675.85
2018-07-15T10:36:39.413Z,99680.08
2018-07-15T10:38:15.775Z,99669.85
2018-07-15T10:39:59.512Z,99676.19
2018-07-15T10:41:43.353Z,99677.73
2018-07-15T10:43:28.667Z,99666.77
2018-07-15T10:45:13.661Z,99657.62
2018-07-15T10:46:53.037Z,99659.28
2018-07-15T10:48:38.156Z,99659.64
2018-07-15T10:50:21.658Z,99656.55
2018-07-15T10:52:05.625Z,99653.75
2018-07-15T10:53:52.531Z,99654.73
2018-07-15T10:55:29.427Z,99649.70
2018-07-15T10:57:13.062Z,99648.23
2018-07-15T10:58:55.656Z,99646.77
2018-07-15T11:00:36.727Z,99639.20
2018-07-15T11:02:19.762Z,99646.77
2018-07-15T11:03:56.489Z,99649.52
2018-07-15T11:05:39.320Z,99644.45
2018-07-15T11:07:20.260Z,99640.55
2018-07-15T11:09:04.452Z,99643.06
2018-07-15T11:10:41.712Z,99640.13
2018-07-15T11:12:25.372Z,99634.68
2018-07-15T11:14:11.260Z,99628.22
2018-07-15T11:15:55.973Z,99622.64
2018-07-15T11:17:42.842Z,99628.55
2018-07-15T11:19:27.082Z,99627.52
2018-07-15T11:21:04.649Z,99617.94
2018-07-15T11:22:48.239Z,99626.53
2018-07-15T11:24:31.856Z,99627.58
2018-07-15T11:26:15.460Z,99618.86
2018-07-15T11:27:52.263Z,99613.69
2018-07-15T11:29:28.206Z,99610.44
2018-07-15T11:31:03.884Z,99605.84
2018-07-15T11:32:40.035Z,99604.55
2018-07-15T11:34:15.640Z,99604.94
2018-07-15T11:35:51.467Z,99601.75
2018-07-15T11:37:27.440Z,99603.60
2018-07-15T11:39:04.894Z,99599.15
2018-07-15T11:40:41.196Z,99591.89
2018-07-15T11:42:16.835Z,99594.89
2018-07-15T11:43:52.583Z,99589.77
2018-07-15T11:45:28.533Z,99586.51
2018-07-15T11:47:05.141Z,99591.48
2018-07-15T11:48:41.172Z,99589.19
2018-07-15T11:50:16.848Z,99579.40
2018-07-15T11:51:52.736Z,99590.21
2018-07-15T11:53:28.504Z,99591.83
2018-07-15T11:55:04.123Z,99586.30
2018-07-15T11:56:39.833Z,99572.15
2018-07-15T11:58:15.598Z,99576.84
2018-07-15T11:59:51.759Z,99574.45
2018-07-15T12:01:27.436Z,99571.48
2018-07-15T12:03:03.031Z,99565.92
2018-07-15T12:04:38.899Z,99565.96
2018-07-15T12:06:14.855Z,99571.41
2018-07-15T12:07:55.992Z,99569.34
2018-07-15T12:09:33.748Z,99569.50
2018-07-15T12:11:10.232Z,99567.77
2018-07-15T12:12:45.924Z,99568.91
2018-07-15T12:16:40.657Z,99576.50
2018-07-15T12:18:16.595Z,99570.54
2018-07-15T12:19:54.670Z,99567.05
2018-07-15T12:21:31.278Z,99567.73
